ZSPD Airport Information

Runway Information
Runway 16R Length 12467 ft width 197 ft Elevation 12 ft Threshold N/A Heading 162
Runway 34L Length 12467 ft Width 197 ft Elevation 12 ft Threshold N/A Heading 342
Runway 17L Length 13123 ft width 197 ft Elevation 10 ft Threshold N/A Heading 162
Runway 35R Length 13123 ft Width 197 ft Elevation 10 ft Threshold N/A Heading 342
Runway 16L Length 12467 ft width 197 ft Elevation 11 ft Threshold N/A Heading 162
Runway 34R Length 12467 ft Width 197 ft Elevation 11 ft Threshold N/A Heading 342
Runway 17R Length 11154 ft width 197 ft Elevation 12 ft Threshold N/A Heading 162
Runway 35L Length 11154 ft Width 197 ft Elevation 12 ft Threshold N/A Heading 342
Airport Frequencies
Type APP Name SHANGHAI A Frequency 119.75 MHZ
Type APP Name SHANGHAI A Frequency 120.3 MHZ
Type APP Name SHAINGHAI Frequency 121.3 MHZ
Type APP Name SHANGHAI A Frequency 123.8 MHZ
Type ATIS Name ATIS Frequency 127.85 MHZ
Type CLD Name DEL Frequency 121.95 MHZ
Type GND Name GND EAST Frequency 121.8 MHZ
Type GND Name GND WEST Frequency 121.65 MHZ
Type TWR Name TWR EAST Frequency 118.4 MHZ
Type TWR Name TWR WEST Frequency 118.8 MHZ
Airport Navaids
Type VOR-DME Name Hengsha Frequency 114400 KHZ
Type VOR-DME Name Nanhui Frequency 114600 KHZ
Type VOR-DME Name Liuzao Frequency 109400 KHZ
Type VOR-DME Name Pudong Frequency 116900 KHZ
Type VOR-DME Name Shuyuan Frequency 113600 KHZ
Airport Weather Information & NOTAM
ADDS - METARS form results

(1539 UTC 08 December 2022)
Data provider http://aviationweather.gov/metar/data/
 
METAR text: ZSPD 081530Z 08003MPS 9999 OVC040 14/11 Q1022 NOSIG
Conditions at: ZSPD (SHANGHAI/PUDONG , CN) observed 1530 UTC 08 December 2022
Temperature: 14.0°C (57°F)
Dewpoint: 11.0°C (52°F) [RH = 82%]
Pressure (altimeter): 30.18 inches Hg (1022.0 mb)
Winds: from the E (80 degrees) at 7 MPH (6 knots; 3.1 m/s)
Visibility: 6 or more miles (10+ km)
Ceiling: 4000 feet AGL
Clouds: overcast cloud deck at 4000 feet AGL
Weather: no significant weather observed at this time

METAR text: ZSPD 081500Z 10004MPS 9999 OVC040 14/11 Q1022 NOSIG
Conditions at: ZSPD (SHANGHAI/PUDONG , CN) observed 1500 UTC 08 December 2022
Temperature: 14.0°C (57°F)
Dewpoint: 11.0°C (52°F) [RH = 82%]
Pressure (altimeter): 30.18 inches Hg (1022.0 mb)
Winds: from the E (100 degrees) at 9 MPH (8 knots; 4.1 m/s)
Visibility: 6 or more miles (10+ km)
Ceiling: 4000 feet AGL
Clouds: overcast cloud deck at 4000 feet AGL
Weather: no significant weather observed at this time

Forecast for: ZSPD (SHANGHAI/PUDONG , CN)
Text: TAF ZSPD 080908Z 0812/0912 06004MPS 6000 BKN020 TX15/0906Z TN10/0821Z
Forecast period: 1200 UTC 08 December 2022 to 1200 UTC 09 December 2022
Forecast type: FROM: standard forecast or significant change
Winds: from the ENE (60 degrees) at 9 MPH (8 knots; 4.1 m/s)
Visibility: 4 miles (6 km)
Ceiling: 2000 feet AGL
Clouds: broken clouds at 2000 feet AGL
Weather: no significant weather forecast for this period